createdAt,value
2023-07-08T00:00:55.032Z,95269.31
2023-07-08T00:03:22.056Z,95263.72
2023-07-08T00:05:54.335Z,95249.09
2023-07-08T00:08:22.060Z,95258.88
2023-07-08T00:10:48.921Z,95258.66
2023-07-08T00:13:15.653Z,95249.19
2023-07-08T00:15:42.511Z,95248.53
2023-07-08T00:18:15.316Z,95240.91
2023-07-08T00:20:46.348Z,95244.72
2023-07-08T00:23:12.998Z,95244.25
2023-07-08T00:25:40.400Z,95247.69
2023-07-08T00:28:25.353Z,95239.19
2023-07-08T00:30:52.094Z,95240.75
2023-07-08T00:33:18.824Z,95247.41
2023-07-08T00:35:46.938Z,95242.44
2023-07-08T00:38:28.589Z,95245.03
2023-07-08T00:40:58.352Z,95233.13
2023-07-08T00:43:37.210Z,95233.38
2023-07-08T00:46:12.807Z,95233.00
2023-07-08T00:48:41.824Z,95244.31
2023-07-08T00:51:11.199Z,95250.63
2023-07-08T00:53:37.936Z,95247.81
2023-07-08T00:56:33.095Z,95249.44
2023-07-08T00:59:20.481Z,95244.34
2023-07-08T01:01:49.483Z,95254.72
2023-07-08T01:04:23.563Z,95250.88
2023-07-08T01:06:55.705Z,95259.03
2023-07-08T01:09:22.511Z,95258.13
2023-07-08T01:11:49.206Z,95262.81
2023-07-08T01:14:22.751Z,95259.84
2023-07-08T01:16:51.140Z,95279.44
2023-07-08T01:19:22.572Z,95282.91
2023-07-08T01:21:55.260Z,95281.91
2023-07-08T01:24:21.964Z,95278.72
2023-07-08T01:26:49.528Z,95275.31
2023-07-08T01:29:16.974Z,95280.31
2023-07-08T01:31:44.190Z,95283.31
2023-07-08T01:34:12.249Z,95275.50
2023-07-08T01:36:45.783Z,95266.53
2023-07-08T01:39:17.235Z,95259.91
2023-07-08T01:41:44.521Z,95266.72
2023-07-08T01:44:33.541Z,95262.53
2023-07-08T01:47:08.889Z,95260.03
2023-07-08T01:49:40.491Z,95251.25
2023-07-08T01:52:09.677Z,95245.47
2023-07-08T01:54:36.340Z,95239.03
2023-07-08T01:57:03.093Z,95236.78
2023-07-08T01:59:29.716Z,95228.81
2023-07-08T02:01:56.760Z,95229.44
2023-07-08T02:04:25.964Z,95221.94
2023-07-08T02:06:58.044Z,95233.72
2023-07-08T02:09:27.043Z,95228.59
2023-07-08T02:11:54.813Z,95236.38
2023-07-08T02:14:21.947Z,95227.53
2023-07-08T02:16:48.888Z,95223.78
2023-07-08T02:19:15.595Z,95225.75
2023-07-08T02:21:42.285Z,95232.53
2023-07-08T02:24:09.000Z,95227.13
2023-07-08T02:26:35.648Z,95226.75
2023-07-08T02:29:03.246Z,95221.47
2023-07-08T02:31:29.946Z,95223.19
2023-07-08T02:33:56.691Z,95222.31
2023-07-08T02:36:23.358Z,95217.59
2023-07-08T02:38:50.074Z,95222.66
2023-07-08T02:41:17.188Z,95220.94
2023-07-08T02:43:43.859Z,95218.88
2023-07-08T02:46:10.567Z,95223.28
2023-07-08T02:48:37.468Z,95233.56
2023-07-08T02:51:06.341Z,95244.75
2023-07-08T02:53:33.359Z,95243.97
2023-07-08T02:56:00.122Z,95249.75
2023-07-08T02:58:26.862Z,95260.16
2023-07-08T03:00:55.142Z,95264.03
2023-07-08T03:03:22.487Z,95267.50
2023-07-08T03:06:00.572Z,95258.31
2023-07-08T03:08:30.880Z,95263.50
2023-07-08T03:11:03.780Z,95259.94
2023-07-08T03:13:34.021Z,95256.47
2023-07-08T03:16:02.278Z,95268.22
2023-07-08T03:18:30.654Z,95286.53
2023-07-08T03:20:58.873Z,95312.09
2023-07-08T03:23:26.833Z,95292.53
2023-07-08T03:25:54.257Z,95302.47
2023-07-08T03:28:21.357Z,95291.06
2023-07-08T03:30:54.177Z,95266.97
2023-07-08T03:33:22.176Z,95262.44
2023-07-08T03:35:49.889Z,95264.50
2023-07-08T03:38:16.892Z,95264.94
2023-07-08T03:40:43.666Z,95271.41
2023-07-08T03:43:10.303Z,95276.06
2023-07-08T03:45:36.998Z,95272.22
2023-07-08T03:48:03.855Z,95268.97
2023-07-08T03:50:30.653Z,95273.81
2023-07-08T03:52:57.864Z,95290.63
2023-07-08T03:55:24.527Z,95298.25
2023-07-08T03:57:51.216Z,95301.16
2023-07-08T04:00:17.852Z,95302.53
2023-07-08T04:02:46.354Z,95307.88
2023-07-08T04:05:23.959Z,95307.06
2023-07-08T04:07:51.149Z,95310.84
2023-07-08T04:10:17.966Z,95319.94
2023-07-08T04:12:44.760Z,95324.91
2023-07-08T04:15:13.172Z,95333.88
2023-07-08T04:17:46.165Z,95347.41
2023-07-08T04:20:16.862Z,95359.59
2023-07-08T04:22:43.568Z,95346.63
2023-07-08T04:25:13.302Z,95367.34
2023-07-08T04:27:40.413Z,95365.97
2023-07-08T04:30:08.505Z,95354.72
2023-07-08T04:32:35.206Z,95351.72
2023-07-08T04:35:01.922Z,95368.88
2023-07-08T04:37:28.631Z,95364.66
2023-07-08T04:39:56.822Z,95368.81
2023-07-08T04:42:23.573Z,95383.34
2023-07-08T04:44:50.418Z,95385.25
2023-07-08T04:47:17.061Z,95400.78
2023-07-08T04:49:43.763Z,95403.72
2023-07-08T04:52:11.190Z,95411.22
2023-07-08T04:54:37.886Z,95414.97
2023-07-08T04:57:06.661Z,95414.97
2023-07-08T04:59:33.390Z,95411.50
2023-07-08T05:02:00.140Z,95423.78
2023-07-08T05:04:26.792Z,95434.75
2023-07-08T05:06:53.644Z,95418.66
2023-07-08T05:09:20.367Z,95468.19
2023-07-08T05:11:47.115Z,95438.75
2023-07-08T05:14:14.446Z,95416.03
2023-07-08T05:16:41.304Z,95420.06
2023-07-08T05:19:08.036Z,95415.50
2023-07-08T05:21:34.750Z,95419.25
2023-07-08T05:24:05.782Z,95423.28
2023-07-08T05:26:33.450Z,95428.91
2023-07-08T05:29:00.226Z,95449.00
2023-07-08T05:31:38.044Z,95443.34
2023-07-08T05:34:12.533Z,95454.63
2023-07-08T05:36:39.173Z,95450.06
2023-07-08T05:39:06.947Z,95471.47
2023-07-08T05:41:33.673Z,95464.47
2023-07-08T05:44:00.400Z,95477.34
2023-07-08T05:46:27.120Z,95467.16
2023-07-08T05:48:53.802Z,95459.13
2023-07-08T05:51:20.486Z,95467.16
2023-07-08T05:53:47.120Z,95467.69
2023-07-08T05:56:14.047Z,95461.81
2023-07-08T05:58:40.689Z,95468.22
2023-07-08T06:01:07.588Z,95481.63
2023-07-08T06:03:34.565Z,95466.38
2023-07-08T06:06:01.264Z,95472.53
2023-07-08T06:08:27.915Z,95462.91
2023-07-08T06:10:54.570Z,95474.16
2023-07-08T06:13:21.327Z,95489.66
2023-07-08T06:15:48.141Z,95483.50
2023-07-08T06:18:14.841Z,95472.00
2023-07-08T06:20:41.501Z,95482.72
2023-07-08T06:23:08.259Z,95481.41
2023-07-08T06:25:35.025Z,95499.38
2023-07-08T06:28:01.654Z,95495.09
2023-07-08T06:30:28.442Z,95502.31
2023-07-08T06:32:55.129Z,95514.13
2023-07-08T06:35:21.820Z,95507.97
2023-07-08T06:37:48.516Z,95514.38
2023-07-08T06:40:15.354Z,95519.44
2023-07-08T06:42:41.970Z,95513.31
2023-07-08T06:45:09.121Z,95524.06
2023-07-08T06:47:35.794Z,95519.22
2023-07-08T06:50:02.476Z,95518.66
2023-07-08T06:52:29.369Z,95514.66
2023-07-08T06:54:56.022Z,95514.91
2023-07-08T06:57:22.689Z,95513.53
2023-07-08T06:59:49.329Z,95506.84
2023-07-08T07:02:16.019Z,95506.81
2023-07-08T07:04:42.678Z,95512.72
2023-07-08T07:07:10.737Z,95513.25
2023-07-08T07:09:37.453Z,95529.88
2023-07-08T07:12:07.549Z,95520.44
2023-07-08T07:17:08.761Z,95525.00
2023-07-08T07:19:36.139Z,95521.59
2023-07-08T07:22:03.770Z,95506.84
2023-07-08T07:24:30.540Z,95506.81
2023-07-08T07:26:57.260Z,95515.13
2023-07-08T07:29:24.649Z,95515.38
2023-07-08T07:31:51.396Z,95532.03
2023-07-08T07:34:18.473Z,95536.06
2023-07-08T07:36:45.098Z,95528.81
2023-07-08T07:39:11.727Z,95528.28
2023-07-08T07:41:38.383Z,95528.28
2023-07-08T07:44:05.036Z,95530.72
2023-07-08T07:46:31.830Z,95540.09
2023-07-08T07:48:58.497Z,95522.44
2023-07-08T07:51:25.136Z,95509.28
2023-07-08T07:53:51.780Z,95506.59
2023-07-08T07:56:18.457Z,95512.19
2023-07-08T07:58:45.125Z,95514.09
2023-07-08T08:01:11.765Z,95509.28
2023-07-08T08:03:38.481Z,95520.78
2023-07-08T08:06:05.228Z,95519.19
2023-07-08T08:08:31.910Z,95513.53
2023-07-08T08:10:58.604Z,95512.72
2023-07-08T08:13:25.312Z,95512.69
2023-07-08T08:15:58.503Z,95524.47
2023-07-08T08:18:27.048Z,95511.00
2023-07-08T08:20:55.094Z,95517.00
2023-07-08T08:23:22.097Z,95519.78
2023-07-08T08:25:48.935Z,95525.72
2023-07-08T08:28:15.555Z,95524.16
2023-07-08T08:30:42.341Z,95523.91
2023-07-08T08:33:09.077Z,95526.19
2023-07-08T08:35:35.821Z,95523.13
2023-07-08T08:38:03.017Z,95527.47
2023-07-08T08:40:32.013Z,95523.13
2023-07-08T08:43:12.712Z,95524.75
2023-07-08T08:46:05.228Z,95531.03
2023-07-08T08:48:40.502Z,95537.94
2023-07-08T08:51:14.522Z,95534.22
2023-07-08T08:53:41.648Z,95531.53
2023-07-08T08:56:23.321Z,95519.38
2023-07-08T08:59:03.393Z,95531.50
2023-07-08T09:01:32.982Z,95516.41
2023-07-08T09:04:16.190Z,95524.16
2023-07-08T09:06:43.492Z,95534.59
2023-07-08T09:09:20.112Z,95541.59
2023-07-08T09:12:02.097Z,95542.28
2023-07-08T09:14:30.889Z,95536.00
2023-07-08T09:17:16.179Z,95528.47
2023-07-08T09:19:50.616Z,95527.28
2023-07-08T09:22:41.715Z,95533.09
2023-07-08T09:25:11.361Z,95532.88
2023-07-08T09:27:38.053Z,95526.59
2023-07-08T09:30:05.279Z,95527.31
2023-07-08T09:32:32.029Z,95523.47
2023-07-08T09:35:08.723Z,95521.69
2023-07-08T09:37:38.382Z,95529.53
2023-07-08T09:40:18.585Z,95529.38
2023-07-08T09:42:52.186Z,95524.56
2023-07-08T09:45:25.132Z,95527.59
2023-07-08T09:47:59.290Z,95526.47
2023-07-08T09:50:29.253Z,95523.06
2023-07-08T09:52:58.843Z,95529.69
2023-07-08T09:55:25.697Z,95531.97
2023-07-08T09:57:55.014Z,95534.47
2023-07-08T10:00:34.354Z,95529.13
2023-07-08T10:03:21.647Z,95525.69
2023-07-08T10:05:50.169Z,95529.88
2023-07-08T10:08:24.890Z,95531.81
2023-07-08T10:11:02.666Z,95534.50
2023-07-08T10:13:42.399Z,95526.09
2023-07-08T10:16:15.285Z,95530.50
2023-07-08T10:18:42.227Z,95526.28
2023-07-08T10:21:45.892Z,95528.41
2023-07-08T10:24:49.560Z,95527.09
2023-07-08T10:27:34.817Z,95530.78
2023-07-08T10:30:07.498Z,95531.69
2023-07-08T10:32:34.489Z,95524.59
2023-07-08T10:35:21.870Z,95536.50
2023-07-08T10:38:25.710Z,95534.88
2023-07-08T10:41:06.201Z,95531.25
2023-07-08T10:43:57.605Z,95531.31
2023-07-08T10:46:45.495Z,95527.91
2023-07-08T10:49:37.862Z,95531.69
2023-07-08T10:52:40.963Z,95527.13
2023-07-08T10:55:27.635Z,95527.91
2023-07-08T10:58:31.086Z,95523.31
2023-07-08T11:01:30.151Z,95525.97
2023-07-08T11:04:06.110Z,95515.75
2023-07-08T11:06:51.899Z,95516.28
2023-07-08T11:09:54.014Z,95522.41
2023-07-08T11:12:34.389Z,95521.50
2023-07-08T11:15:51.850Z,95517.09
2023-07-08T11:19:03.162Z,95522.00
2023-07-08T11:21:38.629Z,95506.09
2023-07-08T11:24:23.334Z,95510.78
2023-07-08T11:27:15.728Z,95509.09
2023-07-08T11:29:59.854Z,95505.38
2023-07-08T11:32:32.975Z,95509.38
2023-07-08T11:35:05.143Z,95506.38
2023-07-08T11:37:34.044Z,95505.97
2023-07-08T11:40:06.401Z,95504.69
2023-07-08T11:42:41.846Z,95515.28
2023-07-08T11:45:18.030Z,95503.47
2023-07-08T11:47:50.566Z,95495.38
2023-07-08T11:50:30.499Z,95502.69
2023-07-08T11:53:09.204Z,95496.50
2023-07-08T11:55:45.678Z,95502.75
2023-07-08T11:58:21.115Z,95499.78
2023-07-08T12:01:00.016Z,95496.69
2023-07-08T12:03:38.281Z,95497.66
2023-07-08T12:06:29.575Z,95481.72
2023-07-08T12:09:10.075Z,95491.03
2023-07-08T12:11:44.422Z,95483.66
2023-07-08T12:14:11.935Z,95479.81
2023-07-08T12:16:38.887Z,95488.97
2023-07-08T12:19:11.141Z,95483.47
2023-07-08T12:21:38.349Z,95480.00
2023-07-08T12:24:07.571Z,95476.41
2023-07-08T12:26:35.142Z,95483.81
2023-07-08T12:29:02.063Z,95475.41
2023-07-08T12:31:30.186Z,95477.91
2023-07-08T12:33:58.672Z,95481.97
2023-07-08T12:36:31.451Z,95476.59
2023-07-08T12:39:00.717Z,95475.84
2023-07-08T12:41:34.141Z,95467.09
2023-07-08T12:44:02.987Z,95474.41
2023-07-08T12:46:30.573Z,95466.06
2023-07-08T12:48:57.348Z,95465.28
2023-07-08T12:51:27.294Z,95468.31
2023-07-08T12:53:55.169Z,95460.19
2023-07-08T12:56:25.098Z,95471.66
2023-07-08T12:58:56.540Z,95473.72
2023-07-08T13:01:29.510Z,95464.25
2023-07-08T13:04:06.420Z,95470.72
2023-07-08T13:06:35.349Z,95460.81
2023-07-08T13:09:29.031Z,95463.81
2023-07-08T13:11:58.121Z,95452.91
2023-07-08T13:14:26.552Z,95450.91
2023-07-08T13:16:53.983Z,95458.75
2023-07-08T13:19:23.155Z,95449.84
2023-07-08T13:21:51.973Z,95451.72
2023-07-08T13:24:19.084Z,95451.75
2023-07-08T13:26:49.600Z,95444.94
2023-07-08T13:29:18.965Z,95450.81
2023-07-08T13:31:50.211Z,95450.06
2023-07-08T13:34:19.654Z,95455.84
2023-07-08T13:36:51.225Z,95441.91
2023-07-08T13:39:28.790Z,95437.25
2023-07-08T13:41:56.859Z,95434.97
2023-07-08T13:44:23.630Z,95441.94
2023-07-08T13:46:59.411Z,95441.88
2023-07-08T13:49:30.321Z,95447.69
2023-07-08T13:52:19.634Z,95445.28
2023-07-08T13:54:54.065Z,95447.31
2023-07-08T13:57:24.838Z,95440.97
2023-07-08T13:59:51.571Z,95439.00
2023-07-08T14:02:24.111Z,95443.25
2023-07-08T14:04:53.657Z,95437.75
2023-07-08T14:07:24.652Z,95445.00
2023-07-08T14:09:51.358Z,95441.34
2023-07-08T14:12:18.017Z,95443.72
2023-07-08T14:14:44.923Z,95437.97
2023-07-08T14:17:20.098Z,95441.94
2023-07-08T14:19:46.772Z,95440.25
2023-07-08T14:22:13.393Z,95444.13
2023-07-08T14:24:40.814Z,95436.28
2023-07-08T14:27:11.945Z,95441.66
2023-07-08T14:29:39.415Z,95438.38
2023-07-08T14:32:13.923Z,95440.38
2023-07-08T14:34:42.211Z,95439.81
2023-07-08T14:37:15.854Z,95445.72
2023-07-08T14:39:42.570Z,95440.34
2023-07-08T14:42:13.600Z,95444.03
2023-07-08T14:44:43.413Z,95443.34
2023-07-08T14:47:15.261Z,95446.09
2023-07-08T14:49:41.985Z,95432.22
2023-07-08T14:52:09.585Z,95442.88
2023-07-08T14:54:36.462Z,95438.97
2023-07-08T14:57:06.122Z,95438.03
2023-07-08T14:59:36.467Z,95430.25
2023-07-08T15:02:19.751Z,95432.03
2023-07-08T15:04:46.433Z,95434.31
2023-07-08T15:07:13.100Z,95437.50
2023-07-08T15:09:39.822Z,95444.19
2023-07-08T15:12:11.119Z,95442.75
2023-07-08T15:14:38.036Z,95430.84
2023-07-08T15:17:13.451Z,95423.97
2023-07-08T15:19:40.186Z,95427.94
2023-07-08T15:22:07.869Z,95434.03
2023-07-08T15:24:34.529Z,95427.28
2023-07-08T15:27:04.463Z,95423.66
2023-07-08T15:29:31.164Z,95414.91
2023-07-08T15:31:57.828Z,95423.84
2023-07-08T15:34:24.563Z,95427.19
2023-07-08T15:36:51.191Z,95418.41
2023-07-08T15:39:17.826Z,95423.19
2023-07-08T15:41:45.713Z,95413.72
2023-07-08T15:44:15.355Z,95415.34
2023-07-08T15:46:48.246Z,95410.06
2023-07-08T15:49:25.993Z,95413.59
2023-07-08T15:51:52.639Z,95409.31
2023-07-08T15:54:20.338Z,95406.28
2023-07-08T15:56:54.250Z,95407.50
2023-07-08T15:59:29.554Z,95401.97
2023-07-08T16:02:02.077Z,95407.94
2023-07-08T16:04:35.879Z,95407.34
2023-07-08T16:07:02.574Z,95402.44
2023-07-08T16:09:29.372Z,95397.28
2023-07-08T16:11:56.128Z,95403.06
2023-07-08T16:14:25.433Z,95396.56
2023-07-08T16:16:54.066Z,95402.81
2023-07-08T16:19:20.728Z,95393.28
2023-07-08T16:21:47.394Z,95389.00
2023-07-08T16:24:14.146Z,95391.59
2023-07-08T16:26:41.733Z,95380.94
2023-07-08T16:29:16.979Z,95386.81
2023-07-08T16:31:43.685Z,95391.28
2023-07-08T16:34:12.024Z,95388.78
2023-07-08T16:36:38.668Z,95390.41
2023-07-08T16:39:05.331Z,95389.59
2023-07-08T16:41:37.820Z,95390.25
2023-07-08T16:44:15.174Z,95393.03
2023-07-08T16:46:42.271Z,95396.25
2023-07-08T16:49:09.935Z,95389.81
2023-07-08T16:51:37.307Z,95393.41
2023-07-08T16:54:14.728Z,95385.81
2023-07-08T16:56:41.734Z,95388.16
2023-07-08T16:59:08.977Z,95394.00
2023-07-08T17:01:35.952Z,95391.25
2023-07-08T17:04:03.132Z,95389.84
2023-07-08T17:06:29.930Z,95391.88
2023-07-08T17:08:56.612Z,95387.50
2023-07-08T17:11:23.296Z,95376.75
2023-07-08T17:13:49.973Z,95383.38
2023-07-08T17:16:25.152Z,95390.25
2023-07-08T17:18:56.873Z,95389.06
2023-07-08T17:21:23.799Z,95380.72
2023-07-08T17:23:53.106Z,95389.56
2023-07-08T17:26:19.825Z,95381.25
2023-07-08T17:28:46.542Z,95386.25
2023-07-08T17:31:21.119Z,95381.09
2023-07-08T17:33:57.209Z,95392.28
2023-07-08T17:36:30.050Z,95377.84
2023-07-08T17:38:56.704Z,95385.63
2023-07-08T17:41:23.721Z,95383.88
2023-07-08T17:43:50.812Z,95390.69
2023-07-08T17:46:22.246Z,95391.97
2023-07-08T17:48:49.163Z,95387.06
2023-07-08T17:51:17.697Z,95397.94
2023-07-08T17:53:44.913Z,95397.16
2023-07-08T17:56:20.199Z,95387.38
2023-07-08T17:58:50.426Z,95389.94
2023-07-08T18:01:17.818Z,95389.09
2023-07-08T18:03:44.568Z,95375.81
2023-07-08T18:06:11.242Z,95379.47
2023-07-08T18:08:37.892Z,95383.53
2023-07-08T18:11:04.630Z,95381.38
2023-07-08T18:13:36.765Z,95384.66
2023-07-08T18:16:03.752Z,95377.91
2023-07-08T18:18:30.680Z,95384.53
2023-07-08T18:20:57.326Z,95382.84
2023-07-08T18:23:27.805Z,95381.97
2023-07-08T18:25:54.644Z,95389.31
2023-07-08T18:28:21.498Z,95391.28
2023-07-08T18:30:53.582Z,95392.88
2023-07-08T18:33:20.672Z,95394.41
2023-07-08T18:35:48.130Z,95393.47
2023-07-08T18:38:15.066Z,95399.72
2023-07-08T18:40:45.035Z,95391.63
2023-07-08T18:43:20.334Z,95397.34
2023-07-08T18:45:48.344Z,95399.28
2023-07-08T18:48:18.499Z,95401.84
2023-07-08T18:50:51.927Z,95406.47
2023-07-08T18:53:19.777Z,95405.47
2023-07-08T18:55:47.589Z,95409.44
2023-07-08T18:58:19.974Z,95410.97
2023-07-08T19:00:48.982Z,95405.38
2023-07-08T19:03:31.439Z,95407.31
2023-07-08T19:05:58.396Z,95406.97
2023-07-08T19:08:25.069Z,95410.63
2023-07-08T19:10:53.418Z,95411.59
2023-07-08T19:13:22.302Z,95409.63
2023-07-08T19:15:49.009Z,95408.34
2023-07-08T19:18:15.714Z,95411.84
2023-07-08T19:20:46.866Z,95418.03
2023-07-08T19:23:15.660Z,95406.41
2023-07-08T19:25:42.291Z,95404.81
2023-07-08T19:28:09.195Z,95405.28
2023-07-08T19:30:39.247Z,95408.19
2023-07-08T19:33:11.433Z,95413.16
2023-07-08T19:35:43.937Z,95417.44
2023-07-08T19:38:15.888Z,95419.06
2023-07-08T19:40:49.065Z,95422.72
2023-07-08T19:43:15.789Z,95428.31
2023-07-08T19:45:42.616Z,95430.91
2023-07-08T19:48:11.872Z,95436.31
2023-07-08T19:50:39.086Z,95446.53
2023-07-08T19:53:06.929Z,95445.09
2023-07-08T19:55:35.578Z,95450.34
2023-07-08T19:58:02.759Z,95446.63
2023-07-08T20:00:41.947Z,95454.63
2023-07-08T20:03:12.139Z,95454.56
2023-07-08T20:05:39.674Z,95460.31
2023-07-08T20:08:18.146Z,95462.97
2023-07-08T20:10:44.812Z,95468.84
2023-07-08T20:13:13.452Z,95470.94
2023-07-08T20:15:40.224Z,95484.22
2023-07-08T20:18:11.887Z,95481.69
2023-07-08T20:20:38.536Z,95484.38
2023-07-08T20:23:05.244Z,95486.19
2023-07-08T20:25:32.581Z,95488.97
2023-07-08T20:27:59.259Z,95490.28
2023-07-08T20:30:28.209Z,95491.41
2023-07-08T20:32:57.670Z,95498.44
2023-07-08T20:35:29.537Z,95502.63
2023-07-08T20:37:56.685Z,95499.50
2023-07-08T20:40:28.140Z,95501.03
2023-07-08T20:42:55.390Z,95500.00
2023-07-08T20:45:29.944Z,95500.69
2023-07-08T20:47:58.226Z,95507.06
2023-07-08T20:50:26.945Z,95506.47
2023-07-08T20:52:54.737Z,95510.06
2023-07-08T20:55:23.360Z,95510.56
2023-07-08T20:57:51.492Z,95516.03
2023-07-08T21:00:28.479Z,95517.34
2023-07-08T21:02:56.745Z,95524.25
2023-07-08T21:05:24.440Z,95524.88
2023-07-08T21:07:53.297Z,95524.84
2023-07-08T21:10:22.803Z,95533.19
2023-07-08T21:12:49.892Z,95536.28
2023-07-08T21:15:19.057Z,95528.31
2023-07-08T21:17:45.979Z,95538.66
2023-07-08T21:20:21.627Z,95538.91
2023-07-08T21:22:49.120Z,95536.81
2023-07-08T21:25:17.756Z,95537.47
2023-07-08T21:27:46.645Z,95538.91
2023-07-08T21:30:22.808Z,95538.66
2023-07-08T21:32:53.097Z,95543.59
2023-07-08T21:35:21.112Z,95545.53
2023-07-08T21:37:51.214Z,95541.50
2023-07-08T21:40:28.729Z,95550.81
2023-07-08T21:42:56.769Z,95543.19
2023-07-08T21:45:33.295Z,95544.66
2023-07-08T21:48:00.019Z,95531.97
2023-07-08T21:50:29.146Z,95531.00
2023-07-08T21:53:01.197Z,95529.53
2023-07-08T21:55:27.851Z,95531.41
2023-07-08T21:57:55.137Z,95537.09
2023-07-08T22:00:22.175Z,95536.78
2023-07-08T22:02:51.665Z,95530.25
2023-07-08T22:05:21.456Z,95536.34
2023-07-08T22:07:49.806Z,95538.59
2023-07-08T22:10:20.664Z,95538.59
2023-07-08T22:12:49.030Z,95535.22
2023-07-08T22:15:28.360Z,95533.50
2023-07-08T22:17:58.452Z,95533.53
2023-07-08T22:20:27.570Z,95528.56
2023-07-08T22:22:54.239Z,95535.84
2023-07-08T22:25:28.688Z,95536.09
2023-07-08T22:27:55.665Z,95531.66
2023-07-08T22:30:23.303Z,95535.16
2023-07-08T22:32:51.482Z,95543.25
2023-07-08T22:35:22.457Z,95535.44
2023-07-08T22:37:49.447Z,95534.75
2023-07-08T22:40:16.614Z,95538.13
2023-07-08T22:42:44.260Z,95538.78
2023-07-08T22:45:14.472Z,95535.03
2023-07-08T22:47:41.189Z,95533.16
2023-07-08T22:50:08.172Z,95538.38
2023-07-08T22:52:37.840Z,95533.69
2023-07-08T22:55:31.768Z,95534.19
2023-07-08T22:58:01.749Z,95530.31
2023-07-08T23:00:30.338Z,95533.28
2023-07-08T23:02:57.493Z,95526.59
2023-07-08T23:05:29.567Z,95538.22
2023-07-08T23:07:56.722Z,95531.06
2023-07-08T23:10:23.360Z,95535.66
2023-07-08T23:12:50.148Z,95532.84
2023-07-08T23:15:16.880Z,95533.34
2023-07-08T23:17:45.270Z,95530.94
2023-07-08T23:20:17.193Z,95532.44
2023-07-08T23:22:45.656Z,95534.53
2023-07-08T23:25:14.100Z,95530.34
2023-07-08T23:27:42.511Z,95532.50
2023-07-08T23:30:27.286Z,95542.06
2023-07-08T23:32:54.209Z,95536.91
2023-07-08T23:35:21.005Z,95542.63
2023-07-08T23:37:48.360Z,95542.94
2023-07-08T23:40:17.458Z,95540.31
2023-07-08T23:42:47.237Z,95545.00
2023-07-08T23:45:14.786Z,95545.47
2023-07-08T23:47:44.014Z,95543.50
2023-07-08T23:50:19.299Z,95543.38
2023-07-08T23:52:46.077Z,95543.06
2023-07-08T23:55:12.838Z,95541.66
2023-07-08T23:57:40.572Z,95546.31
